createdAt,value
2018-06-24T00:00:21.025Z,1004.50
2018-06-24T00:01:27.373Z,1004.46
2018-06-24T00:02:33.706Z,1004.49
2018-06-24T00:03:40.050Z,1004.46
2018-06-24T00:04:46.368Z,1004.48
2018-06-24T00:05:52.698Z,1004.46
2018-06-24T00:06:59.059Z,1004.46
2018-06-24T00:08:05.356Z,1004.46
2018-06-24T00:09:11.707Z,1004.44
2018-06-24T00:10:18.020Z,1004.39
2018-06-24T00:11:24.347Z,1004.41
2018-06-24T00:12:30.681Z,1004.40
2018-06-24T00:13:37.003Z,1004.43
2018-06-24T00:14:43.345Z,1004.41
2018-06-24T00:15:49.660Z,1004.41
2018-06-24T00:16:55.995Z,1004.42
2018-06-24T00:18:02.322Z,1004.49
2018-06-24T00:19:08.643Z,1004.46
2018-06-24T00:20:14.977Z,1004.46
2018-06-24T00:21:21.292Z,1004.43
2018-06-24T00:22:27.617Z,1004.43
2018-06-24T00:23:33.940Z,1004.41
2018-06-24T00:24:41.261Z,1004.43
2018-06-24T00:25:46.583Z,1004.41
2018-06-24T00:26:52.897Z,1004.38
2018-06-24T00:27:59.266Z,1004.34
2018-06-24T00:29:05.563Z,1004.38
2018-06-24T00:30:11.865Z,1004.38
2018-06-24T00:31:18.195Z,1004.42
2018-06-24T00:32:24.516Z,1004.38
2018-06-24T00:33:30.838Z,1004.36
2018-06-24T00:34:37.168Z,1004.38
2018-06-24T00:35:43.471Z,1004.37
2018-06-24T00:36:49.787Z,1004.36
2018-06-24T00:37:56.108Z,1004.34
2018-06-24T00:39:02.437Z,1004.36
2018-06-24T00:40:08.757Z,1004.29
2018-06-24T00:41:15.074Z,1004.34
2018-06-24T00:42:21.386Z,1004.32
2018-06-24T00:43:27.720Z,1004.29
2018-06-24T00:44:34.023Z,1004.27
2018-06-24T00:45:40.328Z,1004.26
2018-06-24T00:46:46.650Z,1004.24
2018-06-24T00:47:52.963Z,1004.23
2018-06-24T00:49:00.273Z,1004.21
2018-06-24T00:50:05.579Z,1004.16
2018-06-24T00:51:11.901Z,1004.17
2018-06-24T00:52:18.214Z,1004.19
2018-06-24T00:53:24.534Z,1004.16
2018-06-24T00:54:30.933Z,1004.15
2018-06-24T00:55:37.124Z,1004.12
2018-06-24T00:56:43.435Z,1004.12
2018-06-24T00:57:49.742Z,1004.11
2018-06-24T00:58:56.089Z,1004.09
2018-06-24T01:00:02.367Z,1004.08
2018-06-24T01:01:08.664Z,1004.10
2018-06-24T01:02:14.968Z,1004.11
2018-06-24T01:03:21.280Z,1004.05
2018-06-24T01:04:27.591Z,1004.04
2018-06-24T01:05:33.893Z,1004.02
2018-06-24T01:06:40.197Z,1004.01
2018-06-24T01:07:46.513Z,1003.99
2018-06-24T01:08:52.817Z,1004.01
2018-06-24T01:10:00.115Z,1004.02
2018-06-24T01:11:05.433Z,1004.04
2018-06-24T01:12:11.733Z,1004.07
2018-06-24T01:13:18.036Z,1004.02
2018-06-24T01:14:24.342Z,1004.04
2018-06-24T01:15:30.631Z,1004.03
2018-06-24T01:16:36.943Z,1004.08
2018-06-24T01:17:43.234Z,1004.04
2018-06-24T01:18:49.543Z,1004.07
2018-06-24T01:19:55.840Z,1004.06
2018-06-24T01:21:02.138Z,1004.09
2018-06-24T01:22:08.438Z,1004.06
2018-06-24T01:23:14.726Z,1004.09
2018-06-24T01:24:21.030Z,1004.05
2018-06-24T01:25:27.323Z,1004.04
2018-06-24T01:26:33.616Z,1004.04
2018-06-24T01:27:39.910Z,1004.00
2018-06-24T01:28:46.191Z,1004.02
2018-06-24T01:29:52.489Z,1004.04
2018-06-24T01:30:58.783Z,1004.02
2018-06-24T01:32:05.063Z,1003.98
2018-06-24T01:33:11.358Z,1004.00
2018-06-24T01:34:17.642Z,1004.04
2018-06-24T01:35:23.946Z,1004.02
2018-06-24T01:36:30.225Z,1004.06
2018-06-24T01:37:36.517Z,1004.03
2018-06-24T01:38:42.814Z,1004.03
2018-06-24T01:39:49.108Z,1004.02
2018-06-24T01:40:55.381Z,1004.03
2018-06-24T01:42:01.674Z,1004.03
2018-06-24T01:43:07.963Z,1004.06
2018-06-24T01:44:14.241Z,1004.03
2018-06-24T01:45:20.550Z,1004.05
2018-06-24T01:46:26.822Z,1003.99
2018-06-24T01:47:33.137Z,1003.98
2018-06-24T01:48:39.394Z,1004.00
2018-06-24T01:49:45.687Z,1003.98
2018-06-24T01:50:51.964Z,1003.97
2018-06-24T01:51:58.268Z,1003.96
2018-06-24T01:53:04.552Z,1003.93
2018-06-24T01:54:10.845Z,1003.92
2018-06-24T01:55:17.128Z,1003.91
2018-06-24T01:56:23.408Z,1003.90
2018-06-24T01:57:29.685Z,1003.89
2018-06-24T01:58:35.972Z,1003.91
2018-06-24T01:59:42.262Z,1003.87
2018-06-24T02:00:48.546Z,1003.88
2018-06-24T02:01:54.825Z,1003.86
2018-06-24T02:03:01.112Z,1003.83
2018-06-24T02:04:07.407Z,1003.81
2018-06-24T02:05:13.688Z,1003.81
2018-06-24T02:06:19.972Z,1003.82
2018-06-24T02:07:27.246Z,1003.76
2018-06-24T02:08:32.531Z,1003.76
2018-06-24T02:09:38.815Z,1003.73
2018-06-24T02:10:45.101Z,1003.71
2018-06-24T02:11:51.384Z,1003.74
2018-06-24T02:12:57.650Z,1003.72
2018-06-24T02:14:03.930Z,1003.73
2018-06-24T02:15:10.222Z,1003.78
2018-06-24T02:16:16.491Z,1003.74
2018-06-24T02:17:22.763Z,1003.72
2018-06-24T02:18:29.036Z,1003.76
2018-06-24T02:19:35.320Z,1003.73
2018-06-24T02:20:41.593Z,1003.75
2018-06-24T02:21:47.876Z,1003.71
2018-06-24T02:22:54.130Z,1003.71
2018-06-24T02:24:00.416Z,1003.71
2018-06-24T02:25:06.694Z,1003.75
2018-06-24T02:26:12.966Z,1003.72
2018-06-24T02:27:19.222Z,1003.71
2018-06-24T02:28:25.498Z,1003.65
2018-06-24T02:29:31.755Z,1003.68
2018-06-24T02:30:38.041Z,1003.63
2018-06-24T02:31:44.309Z,1003.66
2018-06-24T02:32:50.575Z,1003.64
2018-06-24T02:33:56.842Z,1003.66
2018-06-24T02:35:03.119Z,1003.62
2018-06-24T02:36:09.380Z,1003.65
2018-06-24T02:37:15.632Z,1003.63
2018-06-24T02:38:21.911Z,1003.60
2018-06-24T02:39:28.173Z,1003.62
2018-06-24T02:40:34.460Z,1003.57
2018-06-24T02:41:40.707Z,1003.57
2018-06-24T02:42:46.975Z,1003.55
2018-06-24T02:43:53.240Z,1003.53
2018-06-24T02:44:59.503Z,1003.50
2018-06-24T02:46:05.769Z,1003.58
2018-06-24T02:47:12.025Z,1003.59
2018-06-24T02:48:18.285Z,1003.59
2018-06-24T02:49:24.554Z,1003.58
2018-06-24T02:50:30.824Z,1003.57
2018-06-24T02:51:37.087Z,1003.60
2018-06-24T02:52:43.336Z,1003.62
2018-06-24T02:53:49.601Z,1003.61
2018-06-24T02:54:56.888Z,1003.61
2018-06-24T02:56:02.142Z,1003.60
2018-06-24T02:57:08.400Z,1003.59
2018-06-24T02:58:14.654Z,1003.58
2018-06-24T02:59:20.916Z,1003.63
2018-06-24T03:00:27.177Z,1003.61
2018-06-24T03:01:33.446Z,1003.63
2018-06-24T03:02:39.699Z,1003.63
2018-06-24T03:03:45.964Z,1003.62
2018-06-24T03:04:52.228Z,1003.64
2018-06-24T03:05:58.496Z,1003.65
2018-06-24T03:07:04.755Z,1003.67
2018-06-24T03:08:11.017Z,1003.66
2018-06-24T03:09:17.288Z,1003.69
2018-06-24T03:10:23.557Z,1003.72
2018-06-24T03:11:29.814Z,1003.71
2018-06-24T03:12:36.064Z,1003.73
2018-06-24T03:13:42.324Z,1003.74
2018-06-24T03:14:48.597Z,1003.75
2018-06-24T03:15:54.860Z,1003.76
2018-06-24T03:17:01.125Z,1003.78
2018-06-24T03:18:07.381Z,1003.81
2018-06-24T03:19:13.638Z,1003.81
2018-06-24T03:20:19.887Z,1003.78
2018-06-24T03:21:26.156Z,1003.74
2018-06-24T03:22:32.410Z,1003.77
2018-06-24T03:23:38.665Z,1003.79
2018-06-24T03:24:44.929Z,1003.80
2018-06-24T03:25:51.191Z,1003.82
2018-06-24T03:26:57.447Z,1003.83
2018-06-24T03:28:03.703Z,1003.80
2018-06-24T03:29:09.951Z,1003.80
2018-06-24T03:30:16.210Z,1003.78
2018-06-24T03:31:22.487Z,1003.83
2018-06-24T03:32:28.729Z,1003.79
2018-06-24T03:33:34.983Z,1003.80
2018-06-24T03:34:41.238Z,1003.82
2018-06-24T03:35:47.495Z,1003.80
2018-06-24T03:36:53.765Z,1003.79
2018-06-24T03:38:00.014Z,1003.78
2018-06-24T03:39:06.283Z,1003.80
2018-06-24T03:40:12.544Z,1003.79
2018-06-24T03:41:19.287Z,1003.75
2018-06-24T03:42:25.058Z,1003.73
2018-06-24T03:43:31.311Z,1003.72
2018-06-24T03:44:37.587Z,1003.71
2018-06-24T03:45:44.894Z,1003.69
2018-06-24T03:46:50.116Z,1003.75
2018-06-24T03:47:56.367Z,1003.75
2018-06-24T03:49:02.631Z,1003.78
2018-06-24T03:50:08.882Z,1003.78
2018-06-24T03:51:15.148Z,1003.76
2018-06-24T03:52:21.425Z,1003.69
2018-06-24T03:53:27.691Z,1003.73
2018-06-24T03:54:33.953Z,1003.66
2018-06-24T03:55:40.227Z,1003.65
2018-06-24T03:56:46.522Z,1003.66
2018-06-24T03:57:52.756Z,1003.63
2018-06-24T03:58:59.019Z,1003.66
2018-06-24T04:00:05.298Z,1003.65
2018-06-24T04:01:11.569Z,1003.59
2018-06-24T04:02:17.840Z,1003.63
2018-06-24T04:03:24.109Z,1003.58
2018-06-24T04:04:30.382Z,1003.59
2018-06-24T04:05:36.665Z,1003.61
2018-06-24T04:06:42.952Z,1003.57
2018-06-24T04:07:49.224Z,1003.60
2018-06-24T04:08:55.510Z,1003.63
2018-06-24T04:10:01.779Z,1003.66
2018-06-24T04:11:08.056Z,1003.68
2018-06-24T04:12:14.337Z,1003.65
2018-06-24T04:13:20.615Z,1003.69
2018-06-24T04:14:26.889Z,1003.61
2018-06-24T04:15:33.183Z,1003.63
2018-06-24T04:16:39.471Z,1003.64
2018-06-24T04:17:45.764Z,1003.62
2018-06-24T04:18:52.039Z,1003.65
2018-06-24T04:19:58.357Z,1003.69
2018-06-24T04:21:04.617Z,1003.72
2018-06-24T04:22:10.921Z,1003.72
2018-06-24T04:23:17.215Z,1003.76
2018-06-24T04:24:23.515Z,1003.81
2018-06-24T04:25:29.808Z,1003.78
2018-06-24T04:26:36.111Z,1003.71
2018-06-24T04:27:42.406Z,1003.77
2018-06-24T04:28:48.709Z,1003.73
2018-06-24T04:29:56.003Z,1003.74
2018-06-24T04:31:01.303Z,1003.75
2018-06-24T04:32:07.615Z,1003.75
2018-06-24T04:33:13.927Z,1003.70
2018-06-24T04:34:20.245Z,1003.77
2018-06-24T04:35:26.523Z,1003.72
2018-06-24T04:36:32.919Z,1003.77
2018-06-24T04:37:39.125Z,1003.78
2018-06-24T04:38:45.446Z,1003.76
2018-06-24T04:39:51.740Z,1003.73
2018-06-24T04:40:58.052Z,1003.75
2018-06-24T04:42:04.349Z,1003.74
2018-06-24T04:43:10.672Z,1003.77
2018-06-24T04:44:16.980Z,1003.77
2018-06-24T04:45:23.280Z,1003.78
2018-06-24T04:46:29.601Z,1003.77
2018-06-24T04:47:35.909Z,1003.79
2018-06-24T04:48:42.229Z,1003.78
2018-06-24T04:49:48.531Z,1003.67
2018-06-24T04:50:54.857Z,1003.69
2018-06-24T04:52:01.169Z,1003.74
2018-06-24T04:53:07.481Z,1003.78
2018-06-24T04:54:13.820Z,1003.77
2018-06-24T04:55:20.158Z,1003.77
2018-06-24T04:56:26.462Z,1003.77
2018-06-24T04:57:32.888Z,1003.78
2018-06-24T04:58:39.117Z,1003.81
2018-06-24T04:59:45.452Z,1003.74
2018-06-24T05:00:51.784Z,1003.74
2018-06-24T05:01:58.120Z,1003.76
2018-06-24T05:03:04.445Z,1003.80
2018-06-24T05:04:10.786Z,1003.79
2018-06-24T05:05:17.109Z,1003.79
2018-06-24T05:06:23.461Z,1003.78
2018-06-24T05:07:29.778Z,1003.78
2018-06-24T05:08:36.109Z,1003.76
2018-06-24T05:09:42.444Z,1003.76
2018-06-24T05:10:48.779Z,1003.80
2018-06-24T05:11:55.099Z,1003.81
2018-06-24T05:13:01.434Z,1003.79
2018-06-24T05:14:07.751Z,1003.84
2018-06-24T05:15:14.108Z,1003.85
2018-06-24T05:16:21.429Z,1003.87
2018-06-24T05:17:26.752Z,1003.85
2018-06-24T05:18:33.080Z,1003.86
2018-06-24T05:19:39.414Z,1003.86
2018-06-24T05:20:45.763Z,1003.83
2018-06-24T05:21:52.081Z,1003.84
2018-06-24T05:22:58.422Z,1003.83
2018-06-24T05:24:04.757Z,1003.88
2018-06-24T05:25:11.093Z,1003.87
2018-06-24T05:26:17.419Z,1003.87
2018-06-24T05:27:23.758Z,1003.87
2018-06-24T05:28:30.088Z,1003.88
2018-06-24T05:29:36.421Z,1003.87
2018-06-24T05:30:42.769Z,1003.86
2018-06-24T05:31:49.145Z,1003.87
2018-06-24T05:32:56.447Z,1003.89
2018-06-24T05:34:01.783Z,1003.88
2018-06-24T05:35:08.140Z,1003.91
2018-06-24T05:36:14.484Z,1003.89
2018-06-24T05:37:20.820Z,1003.88
2018-06-24T05:38:27.167Z,1003.88
2018-06-24T05:39:33.514Z,1003.90
2018-06-24T05:40:39.876Z,1003.85
2018-06-24T05:41:46.219Z,1003.90
2018-06-24T05:42:52.573Z,1003.86
2018-06-24T05:43:58.948Z,1003.86
2018-06-24T05:45:05.293Z,1003.91
2018-06-24T05:46:11.669Z,1003.87
2018-06-24T05:47:18.017Z,1003.83
2018-06-24T05:48:24.358Z,1003.84
2018-06-24T05:49:30.722Z,1003.85
2018-06-24T05:50:37.233Z,1003.83
2018-06-24T05:51:43.468Z,1003.84
2018-06-24T05:52:49.835Z,1003.83
2018-06-24T05:53:56.202Z,1003.84
2018-06-24T05:55:02.578Z,1003.83
2018-06-24T05:56:08.970Z,1003.82
2018-06-24T05:57:15.325Z,1003.79
2018-06-24T05:58:22.172Z,1003.81
2018-06-24T05:59:28.095Z,1003.80
2018-06-24T06:00:34.505Z,1003.79
2018-06-24T06:01:40.888Z,1003.79
2018-06-24T06:02:47.323Z,1003.73
2018-06-24T06:03:53.678Z,1003.76
2018-06-24T06:05:00.087Z,1003.74
2018-06-24T06:06:06.505Z,1003.69
2018-06-24T06:07:12.896Z,1003.68
2018-06-24T06:08:19.296Z,1003.70
2018-06-24T06:09:25.720Z,1003.64
2018-06-24T06:10:32.127Z,1003.68
2018-06-24T06:11:38.556Z,1003.67
2018-06-24T06:12:44.967Z,1003.67
2018-06-24T06:13:51.399Z,1003.69
2018-06-24T06:14:57.836Z,1003.66
2018-06-24T06:16:04.311Z,1003.65
2018-06-24T06:17:10.715Z,1003.61
2018-06-24T06:18:17.153Z,1003.64
2018-06-24T06:19:23.607Z,1003.62
2018-06-24T06:20:30.032Z,1003.60
2018-06-24T06:21:36.491Z,1003.58
2018-06-24T06:22:42.931Z,1003.59
2018-06-24T06:23:49.375Z,1003.59
2018-06-24T06:24:55.825Z,1003.56
2018-06-24T06:26:02.282Z,1003.59
2018-06-24T06:27:08.745Z,1003.55
2018-06-24T06:28:15.200Z,1003.55
2018-06-24T06:29:21.676Z,1003.58
2018-06-24T06:30:28.150Z,1003.61
2018-06-24T06:31:34.641Z,1003.54
2018-06-24T06:32:41.121Z,1003.56
2018-06-24T06:33:47.609Z,1003.56
2018-06-24T06:34:54.092Z,1003.55
2018-06-24T06:36:00.588Z,1003.55
2018-06-24T06:37:07.077Z,1003.57
2018-06-24T06:38:13.581Z,1003.58
2018-06-24T06:39:20.075Z,1003.58
2018-06-24T06:40:26.593Z,1003.64
2018-06-24T06:41:33.114Z,1003.66
2018-06-24T06:42:39.652Z,1003.61
2018-06-24T06:43:46.186Z,1003.60
2018-06-24T06:44:52.763Z,1003.58
2018-06-24T06:45:59.307Z,1003.60
2018-06-24T06:47:05.963Z,1003.57
2018-06-24T06:48:12.449Z,1003.58
2018-06-24T06:49:19.022Z,1003.58
2018-06-24T06:50:25.616Z,1003.59
2018-06-24T06:51:32.202Z,1003.51
2018-06-24T06:52:38.792Z,1003.57
2018-06-24T06:53:45.368Z,1003.54
2018-06-24T06:54:51.958Z,1003.50
2018-06-24T06:55:58.525Z,1003.54
2018-06-24T06:57:05.106Z,1003.54
2018-06-24T06:58:11.704Z,1003.52
2018-06-24T06:59:18.271Z,1003.48
2018-06-24T07:00:24.845Z,1003.46
2018-06-24T07:01:31.432Z,1003.48
2018-06-24T07:02:38.001Z,1003.46
2018-06-24T07:03:44.574Z,1003.49
2018-06-24T07:04:51.146Z,1003.48
2018-06-24T07:05:57.738Z,1003.45
2018-06-24T07:07:04.336Z,1003.49
2018-06-24T07:08:10.924Z,1003.45
2018-06-24T07:09:17.519Z,1003.47
2018-06-24T07:10:24.118Z,1003.44
2018-06-24T07:11:30.747Z,1003.42
2018-06-24T07:12:37.366Z,1003.42
2018-06-24T07:13:43.985Z,1003.39
2018-06-24T07:14:50.627Z,1003.39
2018-06-24T07:15:57.248Z,1003.34
2018-06-24T07:17:04.381Z,1003.34
2018-06-24T07:18:10.581Z,1003.32
2018-06-24T07:19:17.170Z,1003.32
2018-06-24T07:20:23.817Z,1003.32
2018-06-24T07:21:30.463Z,1003.31
2018-06-24T07:22:37.616Z,1003.33
2018-06-24T07:23:43.775Z,1003.31
2018-06-24T07:24:50.928Z,1003.29
2018-06-24T07:25:57.568Z,1003.33
2018-06-24T07:27:04.226Z,1003.35
2018-06-24T07:28:10.896Z,1003.38
2018-06-24T07:29:17.048Z,1003.37
2018-06-24T07:30:23.711Z,1003.38
2018-06-24T07:31:30.388Z,1003.37
2018-06-24T07:32:37.028Z,1003.35
2018-06-24T07:33:43.895Z,1003.34
2018-06-24T07:34:50.358Z,1003.37
2018-06-24T07:35:57.035Z,1003.36
2018-06-24T07:37:04.181Z,1003.39
2018-06-24T07:38:10.364Z,1003.38
2018-06-24T07:39:17.049Z,1003.38
2018-06-24T07:40:24.195Z,1003.38
2018-06-24T07:41:30.849Z,1003.37
2018-06-24T07:42:37.015Z,1003.42
2018-06-24T07:43:43.676Z,1003.43
2018-06-24T07:44:50.895Z,1003.37
2018-06-24T07:45:57.480Z,1003.41
2018-06-24T07:47:03.627Z,1003.37
2018-06-24T07:48:10.279Z,1003.37
2018-06-24T07:49:16.932Z,1003.39
2018-06-24T07:50:23.727Z,1003.41
2018-06-24T07:51:30.230Z,1003.33
2018-06-24T07:52:37.383Z,1003.39
2018-06-24T07:53:43.542Z,1003.34
2018-06-24T07:54:50.698Z,1003.36
2018-06-24T07:55:57.336Z,1003.35
2018-06-24T07:57:04.002Z,1003.34
2018-06-24T07:58:10.654Z,1003.41
2018-06-24T07:59:17.320Z,1003.46
2018-06-24T08:00:23.947Z,1003.44
2018-06-24T08:01:30.590Z,1003.43
2018-06-24T08:02:37.238Z,1003.49
2018-06-24T08:03:43.416Z,1003.39
2018-06-24T08:04:50.568Z,1003.40
2018-06-24T08:05:57.237Z,1003.35
2018-06-24T08:07:03.419Z,1003.34
2018-06-24T08:08:10.600Z,1003.37
2018-06-24T08:09:16.773Z,1003.34
2018-06-24T08:10:23.934Z,1003.37
2018-06-24T08:11:30.575Z,1003.40
2018-06-24T08:12:37.215Z,1003.39
2018-06-24T08:13:43.337Z,1003.36
2018-06-24T08:14:49.987Z,1003.38
2018-06-24T08:15:56.612Z,1003.36
2018-06-24T08:17:03.250Z,1003.38
2018-06-24T08:18:10.376Z,1003.36
2018-06-24T08:19:16.997Z,1003.40
2018-06-24T08:20:23.129Z,1003.36
2018-06-24T08:21:30.244Z,1003.36
2018-06-24T08:22:36.382Z,1003.35
2018-06-24T08:23:43.006Z,1003.40
2018-06-24T08:24:50.146Z,1003.36
2018-06-24T08:25:56.261Z,1003.38
2018-06-24T08:27:02.877Z,1003.34
2018-06-24T08:28:09.513Z,1003.41
2018-06-24T08:29:16.142Z,1003.34
2018-06-24T08:30:23.300Z,1003.29
2018-06-24T08:31:29.473Z,1003.33
2018-06-24T08:32:36.134Z,1003.29
2018-06-24T08:33:43.326Z,1003.33
2018-06-24T08:34:50.016Z,1003.31
2018-06-24T08:35:56.240Z,1003.29
2018-06-24T08:37:02.953Z,1003.27
2018-06-24T08:38:09.678Z,1003.25
2018-06-24T08:39:16.411Z,1003.20
2018-06-24T08:40:23.637Z,1003.19
2018-06-24T08:41:29.888Z,1003.14
2018-06-24T08:42:36.624Z,1003.17
2018-06-24T08:43:43.335Z,1003.19
2018-06-24T08:44:50.598Z,1003.18
2018-06-24T08:45:57.320Z,1003.18
2018-06-24T08:47:03.573Z,1003.17
2018-06-24T08:48:10.339Z,1003.17
2018-06-24T08:49:18.071Z,1003.14
2018-06-24T08:50:23.848Z,1003.17
2018-06-24T08:51:31.119Z,1003.14
2018-06-24T08:52:37.399Z,1003.12
2018-06-24T08:53:44.181Z,1003.09
2018-06-24T08:54:51.459Z,1003.11
2018-06-24T08:55:57.753Z,1003.14
2018-06-24T08:57:04.526Z,1003.10
2018-06-24T08:58:11.310Z,1003.11
2018-06-24T08:59:18.093Z,1003.15
2018-06-24T09:00:25.358Z,1003.13
2018-06-24T09:01:32.645Z,1003.13
2018-06-24T09:02:38.420Z,1003.11
2018-06-24T09:03:45.196Z,1003.16
2018-06-24T09:04:52.460Z,1003.13
2018-06-24T09:05:59.243Z,1003.10
2018-06-24T09:07:06.009Z,1003.10
2018-06-24T09:08:12.295Z,1003.07
2018-06-24T09:09:19.061Z,1003.09
2018-06-24T09:10:25.845Z,1003.12
2018-06-24T09:11:32.612Z,1003.16
2018-06-24T09:12:39.875Z,1003.12
2018-06-24T09:13:46.165Z,1003.06
2018-06-24T09:14:53.519Z,1003.09
2018-06-24T09:15:59.854Z,1003.10
2018-06-24T09:17:06.586Z,1003.10
2018-06-24T09:18:13.414Z,1003.02
2018-06-24T09:19:20.733Z,1003.06
2018-06-24T09:20:27.114Z,1003.04
2018-06-24T09:21:34.443Z,1003.08
2018-06-24T09:22:40.787Z,1003.04
2018-06-24T09:23:47.627Z,1003.06
2018-06-24T09:24:54.466Z,1003.03
2018-06-24T09:26:01.310Z,1003.03
2018-06-24T09:27:08.131Z,1003.09
2018-06-24T09:28:15.257Z,1003.10
2018-06-24T09:29:22.261Z,1003.05
2018-06-24T09:30:29.069Z,1003.07
2018-06-24T09:31:35.373Z,1003.05
2018-06-24T09:32:42.179Z,1003.05
2018-06-24T09:33:49.968Z,1003.03
2018-06-24T09:34:55.775Z,1003.04
2018-06-24T09:36:02.589Z,1003.03
2018-06-24T09:37:09.393Z,1003.05
2018-06-24T09:38:16.215Z,1003.02
2018-06-24T09:39:23.031Z,1003.01
2018-06-24T09:40:29.871Z,1003.01
2018-06-24T09:41:37.241Z,1003.02
2018-06-24T09:42:44.101Z,1002.92
2018-06-24T09:43:50.527Z,1002.96
2018-06-24T09:44:57.567Z,1002.94
2018-06-24T09:46:04.264Z,1002.90
2018-06-24T09:47:11.119Z,1002.92
2018-06-24T09:48:17.997Z,1002.88
2018-06-24T09:49:24.874Z,1002.94
2018-06-24T09:50:31.744Z,1002.92
2018-06-24T09:51:38.618Z,1002.88
2018-06-24T09:52:45.995Z,1002.88
2018-06-24T09:53:52.886Z,1002.85
2018-06-24T09:54:59.100Z,1002.85
2018-06-24T09:56:05.935Z,1002.91
2018-06-24T09:57:12.754Z,1002.88
2018-06-24T09:58:19.583Z,1002.87
2018-06-24T09:59:26.445Z,1002.81
2018-06-24T10:00:33.811Z,1002.84
2018-06-24T10:01:40.695Z,1002.90
2018-06-24T10:02:47.601Z,1002.89
2018-06-24T10:03:53.997Z,1002.85
2018-06-24T10:05:00.903Z,1002.85
2018-06-24T10:06:07.815Z,1002.86
2018-06-24T10:07:14.736Z,1002.85
2018-06-24T10:08:22.163Z,1002.81
2018-06-24T10:09:28.582Z,1002.80
2018-06-24T10:10:36.021Z,1002.79
2018-06-24T10:11:42.474Z,1002.78
2018-06-24T10:12:49.414Z,1002.72
2018-06-24T10:13:56.859Z,1002.68
2018-06-24T10:15:03.314Z,1002.68
2018-06-24T10:16:10.274Z,1002.69
2018-06-24T10:17:17.225Z,1002.70
2018-06-24T10:18:24.178Z,1002.63
2018-06-24T10:19:31.116Z,1002.63
2018-06-24T10:20:38.579Z,1002.66
2018-06-24T10:21:45.533Z,1002.64
2018-06-24T10:22:51.978Z,1002.69
2018-06-24T10:23:58.909Z,1002.68
2018-06-24T10:25:06.344Z,1002.77
2018-06-24T10:26:13.437Z,1002.68
2018-06-24T10:27:20.224Z,1002.66
2018-06-24T10:28:26.652Z,1002.64
2018-06-24T10:29:33.631Z,1002.63
2018-06-24T10:30:40.957Z,1002.61
2018-06-24T10:31:47.852Z,1002.61
2018-06-24T10:32:54.263Z,1002.59
2018-06-24T10:34:01.717Z,1002.65
2018-06-24T10:35:08.040Z,1002.62
2018-06-24T10:36:14.938Z,1002.66
2018-06-24T10:37:21.837Z,1002.63
2018-06-24T10:38:28.753Z,1002.57
2018-06-24T10:39:35.676Z,1002.60
2018-06-24T10:40:42.625Z,1002.58
2018-06-24T10:41:49.643Z,1002.56
2018-06-24T10:42:56.528Z,1002.55
2018-06-24T10:44:03.984Z,1002.54
2018-06-24T10:45:10.928Z,1002.53
2018-06-24T10:46:17.898Z,1002.48
2018-06-24T10:47:24.354Z,1002.46
2018-06-24T10:48:31.801Z,1002.47
2018-06-24T10:49:38.742Z,1002.41
2018-06-24T10:50:45.672Z,1002.43
2018-06-24T10:51:52.097Z,1002.40
2018-06-24T10:52:59.013Z,1002.43
2018-06-24T10:54:05.905Z,1002.44
2018-06-24T10:55:13.278Z,1002.39
2018-06-24T10:56:19.623Z,1002.40
2018-06-24T10:57:26.459Z,1002.44
2018-06-24T10:59:40.595Z,1002.44
2018-06-24T11:00:46.914Z,1002.41
2018-06-24T11:01:54.208Z,1002.44
2018-06-24T11:03:01.000Z,1002.39
2018-06-24T11:04:07.271Z,1002.42
2018-06-24T11:05:14.034Z,1002.38
2018-06-24T11:06:21.312Z,1002.39
2018-06-24T11:07:27.551Z,1002.42
2018-06-24T11:08:34.369Z,1002.44
2018-06-24T11:09:41.634Z,1002.47
2018-06-24T11:10:48.080Z,1002.41
2018-06-24T11:11:54.693Z,1002.41
2018-06-24T11:13:01.483Z,1002.38
2018-06-24T11:14:08.310Z,1002.39
2018-06-24T11:15:15.730Z,1002.38
2018-06-24T11:16:21.892Z,1002.39
2018-06-24T11:17:28.715Z,1002.42
2018-06-24T11:18:35.952Z,1002.33
2018-06-24T11:19:42.409Z,1002.33
2018-06-24T11:20:48.969Z,1002.34
2018-06-24T11:21:55.760Z,1002.32
2018-06-24T11:23:02.927Z,1002.31
2018-06-24T11:24:09.167Z,1002.35
2018-06-24T11:25:16.376Z,1002.34
2018-06-24T11:26:22.582Z,1002.38
2018-06-24T11:27:29.294Z,1002.37
2018-06-24T11:28:35.982Z,1002.36
2018-06-24T11:29:43.207Z,1002.38
2018-06-24T11:30:49.390Z,1002.32
2018-06-24T11:31:56.092Z,1002.39
2018-06-24T11:33:03.313Z,1002.35
2018-06-24T11:34:10.043Z,1002.36
2018-06-24T11:35:16.789Z,1002.34
2018-06-24T11:36:23.561Z,1002.31
2018-06-24T11:37:29.858Z,1002.27
2018-06-24T11:38:36.693Z,1002.24
2018-06-24T11:39:44.052Z,1002.28
2018-06-24T11:40:50.945Z,1002.26
2018-06-24T11:41:57.375Z,1002.23
2018-06-24T11:43:04.805Z,1002.22
2018-06-24T11:44:11.894Z,1002.23
2018-06-24T11:45:18.770Z,1002.19
2018-06-24T11:46:25.275Z,1002.20
2018-06-24T11:47:32.265Z,1002.24
2018-06-24T11:48:39.781Z,1002.19
2018-06-24T11:49:46.781Z,1002.17
2018-06-24T11:50:53.270Z,1002.18
2018-06-24T11:52:00.249Z,1002.10
2018-06-24T11:53:07.699Z,1002.09
2018-06-24T11:54:14.665Z,1002.04
2018-06-24T11:55:21.607Z,1002.02
2018-06-24T11:56:28.036Z,1002.01
2018-06-24T11:57:34.984Z,1002.02
2018-06-24T11:58:41.892Z,1002.01
2018-06-24T11:59:49.313Z,1001.99
2018-06-24T12:00:56.285Z,1001.98
2018-06-24T12:02:03.264Z,1001.99
2018-06-24T12:03:09.716Z,1001.97
2018-06-24T12:04:17.305Z,1001.92
2018-06-24T12:05:23.740Z,1001.84
2018-06-24T12:06:30.761Z,1001.89
2018-06-24T12:07:37.815Z,1001.95
2018-06-24T12:08:45.346Z,1001.93
2018-06-24T12:09:53.484Z,1001.97
2018-06-24T12:10:59.047Z,1001.88
2018-06-24T12:12:06.164Z,1001.91
2018-06-24T12:13:13.265Z,1001.84
2018-06-24T12:14:20.366Z,1001.90
2018-06-24T12:15:27.430Z,1001.87
2018-06-24T12:16:34.969Z,1001.94
2018-06-24T12:17:41.493Z,1001.93
2018-06-24T12:18:48.966Z,1001.95
2018-06-24T12:19:55.451Z,1001.91
2018-06-24T12:21:02.408Z,1001.96
2018-06-24T12:22:09.891Z,1001.90
2018-06-24T12:23:16.283Z,1001.85
2018-06-24T12:24:23.215Z,1001.83
2018-06-24T12:25:30.166Z,1001.84
2018-06-24T12:26:37.639Z,1001.84
2018-06-24T12:27:44.112Z,1001.85
2018-06-24T12:28:51.606Z,1001.87
2018-06-24T12:29:58.127Z,1001.80
2018-06-24T12:31:05.162Z,1001.81
2018-06-24T12:32:12.185Z,1001.82
2018-06-24T12:33:19.228Z,1001.81
2018-06-24T12:34:26.275Z,1001.82
2018-06-24T12:35:33.317Z,1001.80
2018-06-24T12:36:40.387Z,1001.80
2018-06-24T12:37:47.445Z,1001.78
2018-06-24T12:38:54.519Z,1001.78
2018-06-24T12:40:02.073Z,1001.86
2018-06-24T12:41:09.161Z,1001.77
2018-06-24T12:42:15.726Z,1001.78
2018-06-24T12:43:22.863Z,1001.67
2018-06-24T12:44:29.879Z,1001.65
2018-06-24T12:45:36.957Z,1001.64
2018-06-24T12:46:44.042Z,1001.61
2018-06-24T12:47:51.636Z,1001.62
2018-06-24T12:48:58.265Z,1001.60
2018-06-24T12:50:05.459Z,1001.60
2018-06-24T12:51:12.689Z,1001.63
2018-06-24T12:52:19.898Z,1001.62
2018-06-24T12:53:27.132Z,1001.61
2018-06-24T12:54:34.381Z,1001.66
2018-06-24T12:55:42.113Z,1001.65
2018-06-24T12:56:48.898Z,1001.61
2018-06-24T12:57:56.181Z,1001.61
2018-06-24T12:59:03.660Z,1001.59
2018-06-24T13:00:11.148Z,1001.56
2018-06-24T13:01:18.164Z,1001.56
2018-06-24T13:02:25.965Z,1001.56
2018-06-24T13:03:32.758Z,1001.57
2018-06-24T13:04:40.013Z,1001.61
2018-06-24T13:05:47.220Z,1001.56
2018-06-24T13:06:54.909Z,1001.54
2018-06-24T13:08:01.575Z,1001.55
2018-06-24T13:09:09.722Z,1001.61
2018-06-24T13:10:15.863Z,1001.58
2018-06-24T13:11:23.023Z,1001.59
2018-06-24T13:12:30.172Z,1001.60
2018-06-24T13:13:37.895Z,1001.60
2018-06-24T13:14:45.055Z,1001.60
2018-06-24T13:15:52.781Z,1001.54
2018-06-24T13:16:59.018Z,1001.51
2018-06-24T13:18:06.231Z,1001.46
2018-06-24T13:19:13.916Z,1001.40
2018-06-24T13:20:20.583Z,1001.42
2018-06-24T13:21:27.700Z,1001.43
2018-06-24T13:22:34.874Z,1001.40
2018-06-24T13:23:41.843Z,1001.43
2018-06-24T13:24:49.893Z,1001.40
2018-06-24T13:25:55.941Z,1001.45